KJAC Airport Information

Runway Information
Runway 01 Length 6300 ft width 150 ft
Elevation 6413 ft Threshold 0 ft Heading 20
Runway 19 Length 6300 ft Width 150 ft
Elevation 6451 ft Threshold 0 ft Heading 200
Airport Frequencies
Type ATIS Name ATIS Frequency 120.625 MHZ
Type AWOS Name AWOS 3 Frequency 135.175 MHZ
Type CNTR Name SALT LAKE Frequency 133.25 MHZ
Type CTAF Name CTAF Frequency 118.075 MHZ
Type GND Name GND Frequency 124.55 MHZ
Type RDO Name CASPER RDO Frequency 122.05 MHZ
Type TWR Name TWR Frequency 118.075 MHZ
Type UNIC Name UNICOM Frequency 122.95 MHZ
Airport Navaids
Type VOR-DME Name Jackson Frequency 115400 KHZ
Airport Weather Information & NOTAM
ADDS - METARS form results

(2218 UTC 12 December 2018)
Data provider http://aviationweather.gov/metar/data/
 
METAR text: KJAC 122156Z VRB05KT 8SM -SN BKN035 OVC046 M03/M09 A2998 RMK AO2 PK WND 33031/2142 SLP200 P0000 T10331089
Conditions at: KJAC (JACKSON , WY, US) observed 2156 UTC 12 December 2018
Temperature: -3.3°C (26°F)
Dewpoint: -8.9°C (16°F) [RH = 65%]
Pressure (altimeter): 29.98 inches Hg (1015.3 mb)
[Sea-level pressure: 1020.0 mb]
Winds: variable direction winds at 6 MPH (5 knots; 2.6 m/s)
Visibility: 8 miles (13 km)
Ceiling: 3500 feet AGL
Clouds: broken clouds at 3500 feet AGL
overcast cloud deck at 4600 feet AGL
Weather: -SN  (light snow)

METAR text: KJAC 122143Z 32024G31KT 1 3/4SM -SN FEW019 SCT033 OVC041 M03/M10 A2995 RMK AO2 PK WND 33031/2142 P0000
Conditions at: KJAC (JACKSON , WY, US) observed 2143 UTC 12 December 2018
Temperature: -3.0°C (27°F)
Dewpoint: -10.0°C (14°F) [RH = 58%]
Pressure (altimeter): 29.95 inches Hg (1014.3 mb)
Winds: from the NW (320 degrees) at 28 MPH (24 knots; 12.3 m/s)
gusting to 36 MPH (31 knots; 15.9 m/s)
Visibility: 1.75 miles (2.82 km)
Ceiling: 4100 feet AGL
Clouds: few clouds at 1900 feet AGL
scattered clouds at 3300 feet AGL
overcast cloud deck at 4100 feet AGL
Weather: -SN  (light snow)

Forecast for: KJAC (JACKSON , WY, US)
Text: KJAC 122132Z 1222/1318 31011KT P6SM VCSH SCT020 OVC045
Forecast period: 2200 UTC 12 December 2018 to 0200 UTC 13 December 2018
Forecast type: FROM: standard forecast or significant change
Winds: from the NW (310 degrees) at 13 MPH (11 knots; 5.7 m/s)
Visibility: 6 or more miles 10+ km)
Ceiling: 4500 feet AGL
Clouds: scattered clouds at 2000 feet AGL
overcast cloud deck at 4500 feet AGL
Weather: VCSH  (showers in vicinity)
Text: FM130200 21007KT P6SM SCT025 BKN040 AMD LTD TO CLD VIS AND WIND
Forecast period: 0200 to 1800 UTC 13 December 2018
Forecast type: FROM: standard forecast or significant change
Winds: from the SSW (210 degrees) at 8 MPH (7 knots; 3.6 m/s)
Visibility: 6 or more miles 10+ km)
Ceiling: 4000 feet AGL
Clouds: scattered clouds at 2500 feet AGL
broken clouds at 4000 feet AGL
Weather: no significant weather forecast for this period